Time;durP1;ratioP1;P1;durP2;ratioP2;P2;SDS_P1;SDS_P2;PMS_P1;PMS_P2;Temp;Humidity;BMP_temperature;BMP_pressure;BME280_temperature;BME280_humidity;BME280_pressure;Samples;Min_cycle;Max_cycle;Signal;HPM_P1;HPM_P2
2023/06/10 00:02:01;;;;;;;12.10;7.38;;;;;;;-144.87;100.00;61487.56;4994315;28;20053;-69
2023/06/10 00:04:27;;;;;;;13.25;7.25;;;;;;;-144.87;100.00;61487.56;4969202;28;20051;-70
2023/06/10 00:06:55;;;;;;;13.82;6.65;;;;;;;-144.87;100.00;61487.56;4959293;28;20050;-69
2023/06/10 00:09:21;;;;;;;11.30;6.70;;;;;;;-144.87;100.00;61487.56;4988012;28;20038;-69
2023/06/10 00:11:48;;;;;;;13.65;7.28;;;;;;;-144.87;100.00;61487.56;4973766;28;20089;-69
2023/06/10 00:14:14;;;;;;;14.65;7.03;;;;;;;-144.87;100.00;61487.56;4994167;28;20038;-70
2023/06/10 00:16:44;;;;;;;18.60;7.35;;;;;;;-144.87;100.00;61487.56;4986783;28;20047;-69
2023/06/10 00:19:13;;;;;;;12.03;6.30;;;;;;;-144.87;100.00;61487.56;4981525;28;20051;-68
2023/06/10 00:21:40;;;;;;;12.98;6.30;;;;;;;-144.87;100.00;61487.56;4963289;28;20045;-69
2023/06/10 00:24:11;;;;;;;14.13;7.00;;;;;;;-144.87;100.00;61487.56;4978997;28;20027;-69
2023/06/10 00:26:39;;;;;;;9.88;6.57;;;;;;;-144.87;100.00;61487.56;4982698;28;20027;-69
2023/06/10 00:29:05;;;;;;;18.52;7.93;;;;;;;-144.87;100.00;61487.56;4958076;28;20035;-69
2023/06/10 00:31:33;;;;;;;13.70;6.28;;;;;;;-144.87;100.00;61487.56;4975023;28;20034;-69
2023/06/10 00:34:00;;;;;;;12.35;7.00;;;;;;;-144.87;100.00;61487.56;4967696;28;20330;-69
2023/06/10 00:36:26;;;;;;;10.90;6.70;;;;;;;-144.87;100.00;61487.56;4952287;28;20030;-70
2023/06/10 00:38:53;;;;;;;13.20;6.43;;;;;;;-144.87;100.00;61487.56;4993819;28;20038;-70
2023/06/10 00:41:19;;;;;;;13.43;6.93;;;;;;;-144.87;100.00;61487.56;4977247;28;20049;-70
2023/06/10 00:43:45;;;;;;;12.93;6.80;;;;;;;-144.87;100.00;61487.56;4957561;28;20035;-70
2023/06/10 00:46:13;;;;;;;13.80;6.60;;;;;;;-144.87;100.00;61487.56;4967234;28;20042;-71
2023/06/10 00:48:41;;;;;;;10.02;6.70;;;;;;;-144.87;100.00;61487.56;4960989;28;20479;-69
2023/06/10 00:51:09;;;;;;;11.70;6.47;;;;;;;-144.87;100.00;61487.56;4958203;28;20046;-70
2023/06/10 00:53:36;;;;;;;11.38;6.93;;;;;;;-144.87;100.00;61487.56;4957510;28;20058;-69
2023/06/10 00:56:03;;;;;;;16.58;7.20;;;;;;;-144.87;100.00;61487.56;4982013;28;20073;-69
2023/06/10 00:58:29;;;;;;;9.93;6.70;;;;;;;-144.87;100.00;61487.56;4944087;28;20038;-69
2023/06/10 01:00:57;;;;;;;15.10;6.55;;;;;;;-144.87;100.00;61487.56;4956141;28;20046;-70
2023/06/10 01:03:25;;;;;;;14.70;6.72;;;;;;;-144.87;100.00;61487.56;4979212;28;20065;-70
2023/06/10 01:06:01;;;;;;;14.07;6.88;;;;;;;-144.87;100.00;61487.56;5006868;28;20046;-69
2023/06/10 01:08:43;;;;;;;14.05;7.07;;;;;;;-144.87;100.00;61487.56;5001183;28;20147;-69
2023/06/10 01:11:19;;;;;;;;;;;;;;;-144.87;100.00;61487.56;5001068;28;20102;-70
2023/06/10 01:13:46;;;;;;;13.52;6.60;;;;;;;-144.87;100.00;61487.56;5014398;28;19939;-69
2023/06/10 01:16:12;;;;;;;11.10;7.00;;;;;;;-144.87;100.00;61487.56;4995237;28;20384;-69
2023/06/10 01:18:41;;;;;;;13.25;6.95;;;;;;;-144.87;100.00;61487.56;4993365;28;20045;-69
2023/06/10 01:21:09;;;;;;;11.73;6.47;;;;;;;-144.87;100.00;61487.56;4975852;28;20546;-69
2023/06/10 01:23:35;;;;;;;13.50;6.85;;;;;;;-144.87;100.00;61487.56;4995185;28;20034;-69
2023/06/10 01:26:05;;;;;;;10.52;7.07;;;;;;;-144.87;100.00;61487.56;5006571;28;20027;-69
2023/06/10 01:28:46;;;;;;;13.10;6.53;;;;;;;-144.87;100.00;61487.56;5012389;28;20112;-69
2023/06/10 01:31:45;;;;;;;12.63;6.90;;;;;;;-144.87;100.00;61487.56;5010337;28;20030;-70
2023/06/10 01:34:15;;;;;;;11.98;6.65;;;;;;;-144.87;100.00;61487.56;5007397;28;20117;-69
2023/06/10 01:36:45;;;;;;;16.58;7.05;;;;;;;-144.87;100.00;61487.56;4991826;28;20069;-69
2023/06/10 01:39:11;;;;;;;14.82;6.47;;;;;;;-144.87;100.00;61487.56;4991718;28;20037;-69
2023/06/10 01:41:38;;;;;;;11.35;6.47;;;;;;;-144.87;100.00;61487.56;4994354;28;20434;-69
2023/06/10 01:44:05;;;;;;;22.60;6.88;;;;;;;-144.87;100.00;61487.56;5011782;28;20518;-67
2023/06/10 01:46:31;;;;;;;14.70;6.40;;;;;;;-144.87;100.00;61487.56;5025532;28;20030;-68
2023/06/10 01:48:57;;;;;;;13.05;6.45;;;;;;;-144.87;100.00;61487.56;4992316;28;20046;-68
2023/06/10 01:51:23;;;;;;;12.40;6.63;;;;;;;-144.87;100.00;61487.56;5008021;28;20038;-69
2023/06/10 01:53:50;;;;;;;12.43;6.57;;;;;;;-144.87;100.00;61487.56;4994893;28;20038;-69
2023/06/10 01:56:19;;;;;;;14.68;6.88;;;;;;;-144.87;100.00;61487.56;4993649;28;20042;-69
2023/06/10 01:58:46;;;;;;;21.52;7.03;;;;;;;-144.87;100.00;61487.56;5018929;28;20132;-71
2023/06/10 02:01:13;;;;;;;11.80;6.22;;;;;;;-144.87;100.00;61487.56;5032750;28;20037;-70
2023/06/10 02:03:40;;;;;;;15.60;6.63;;;;;;;-144.87;100.00;61487.56;5020251;28;20038;-68
2023/06/10 02:06:06;;;;;;;13.13;6.47;;;;;;;-144.87;100.00;61487.56;5013376;28;20554;-69
2023/06/10 02:08:32;;;;;;;13.93;7.13;;;;;;;-144.87;100.00;61487.56;5012963;28;20026;-68
2023/06/10 02:11:00;;;;;;;11.68;6.40;;;;;;;-144.87;100.00;61487.56;5013848;28;20124;-68
2023/06/10 02:13:29;;;;;;;13.20;6.80;;;;;;;-144.87;100.00;61487.56;4999358;28;20513;-68
2023/06/10 02:15:55;;;;;;;10.80;6.80;;;;;;;-144.87;100.00;61487.56;5002099;28;20033;-69
2023/06/10 02:18:22;;;;;;;18.40;6.43;;;;;;;-144.87;100.00;61487.56;5002597;28;20064;-68
2023/06/10 02:20:48;;;;;;;14.43;7.05;;;;;;;-144.87;100.00;61487.56;4992318;28;20038;-70
2023/06/10 02:23:15;;;;;;;10.13;6.47;;;;;;;-144.87;100.00;61487.56;4992606;28;20120;-70
2023/06/10 02:25:41;;;;;;;11.10;6.50;;;;;;;-144.87;100.00;61487.56;4986231;28;20034;-69
2023/06/10 02:28:07;;;;;;;14.73;6.55;;;;;;;-144.87;100.00;61487.56;4991567;28;20069;-69
2023/06/10 02:30:34;;;;;;;14.45;6.90;;;;;;;-144.87;100.00;61487.56;4974836;28;20034;-69
2023/06/10 02:33:01;;;;;;;12.55;6.68;;;;;;;-144.87;100.00;61487.56;5014795;28;20076;-69
2023/06/10 02:35:29;;;;;;;12.90;6.15;;;;;;;-144.87;100.00;61487.56;4998212;28;20125;-69
2023/06/10 02:37:56;;;;;;;14.38;7.82;;;;;;;-144.87;100.00;61487.56;5006626;28;20125;-69
2023/06/10 02:40:22;;;;;;;9.77;6.68;;;;;;;-144.87;100.00;61487.56;4991973;28;20155;-69
2023/06/10 02:42:49;;;;;;;11.55;6.88;;;;;;;-144.87;100.00;61487.56;4990640;28;20082;-68
2023/06/10 02:45:16;;;;;;;19.58;7.45;;;;;;;-144.87;100.00;61487.56;5020292;28;20033;-69
2023/06/10 02:47:43;;;;;;;17.73;7.32;;;;;;;-144.87;100.00;61487.56;5009559;28;20136;-69
2023/06/10 02:50:12;;;;;;;11.32;6.65;;;;;;;-144.87;100.00;61487.56;4994248;28;20038;-70
2023/06/10 02:52:58;;;;;;;12.82;7.63;;;;;;;-144.87;100.00;61487.56;5009219;28;20489;-69
2023/06/10 02:55:26;;;;;;;15.20;7.13;;;;;;;-144.87;100.00;61487.56;5009523;28;20026;-70
2023/06/10 02:57:57;;;;;;;16.75;7.22;;;;;;;-144.87;100.00;61487.56;5011941;28;20081;-71
2023/06/10 03:00:25;;;;;;;17.80;7.95;;;;;;;-144.87;100.00;61487.56;4996771;28;20172;-69
2023/06/10 03:02:52;;;;;;;12.98;7.05;;;;;;;-144.87;100.00;61487.56;4995710;28;20049;-71
2023/06/10 03:05:23;;;;;;;13.63;7.30;;;;;;;-144.87;100.00;61487.56;4980760;28;20174;-70
2023/06/10 03:07:52;;;;;;;18.73;7.10;;;;;;;-144.87;100.00;61487.56;5011552;28;20034;-70
2023/06/10 03:10:18;;;;;;;15.02;7.75;;;;;;;-144.87;100.00;61487.56;5008110;28;20429;-70
2023/06/10 03:12:45;;;;;;;15.23;7.35;;;;;;;-144.87;100.00;61487.56;5006843;28;20026;-69
2023/06/10 03:15:12;;;;;;;14.27;8.23;;;;;;;-144.87;100.00;61487.56;5007473;28;20124;-69
2023/06/10 03:17:38;;;;;;;11.77;6.88;;;;;;;-144.87;100.00;61487.56;4992199;28;20040;-69
2023/06/10 03:20:05;;;;;;;12.73;7.47;;;;;;;-144.87;100.00;61487.56;5005272;28;20088;-69
2023/06/10 03:22:33;;;;;;;16.85;7.70;;;;;;;-144.87;100.00;61487.56;5003740;28;20159;-69
2023/06/10 03:25:05;;;;;;;11.48;7.63;;;;;;;-144.87;100.00;61487.56;5006125;28;20034;-68
2023/06/10 03:27:32;;;;;;;15.35;7.32;;;;;;;-144.87;100.00;61487.56;4970863;28;20121;-70
2023/06/10 03:30:01;;;;;;;15.52;8.10;;;;;;;-144.87;100.00;61487.56;4991832;28;20040;-70
2023/06/10 03:32:28;;;;;;;14.90;7.93;;;;;;;-144.87;100.00;61487.56;5006906;28;20050;-69
2023/06/10 03:34:57;;;;;;;14.82;8.10;;;;;;;-144.87;100.00;61487.56;4991519;28;20037;-69
2023/06/10 03:37:25;;;;;;;17.43;8.40;;;;;;;-144.87;100.00;61487.56;5019602;28;20052;-72
2023/06/10 03:39:51;;;;;;;19.45;8.85;;;;;;;-144.87;100.00;61487.56;4989690;28;20065;-70
2023/06/10 03:42:18;;;;;;;19.58;7.95;;;;;;;-144.87;100.00;61487.56;5002146;28;20025;-69
2023/06/10 03:44:45;;;;;;;13.75;8.07;;;;;;;-144.87;100.00;61487.56;5015773;28;20088;-70
2023/06/10 03:47:12;;;;;;;17.27;8.35;;;;;;;-144.87;100.00;61487.56;5012341;28;20058;-68
2023/06/10 03:49:40;;;;;;;13.70;8.43;;;;;;;-144.87;100.00;61487.56;4994074;28;20578;-71
2023/06/10 03:52:07;;;;;;;14.85;7.35;;;;;;;-144.87;100.00;61487.56;5007769;28;20492;-68
2023/06/10 03:54:36;;;;;;;14.65;8.13;;;;;;;-144.87;100.00;61487.56;5013325;28;20091;-69
2023/06/10 03:57:03;;;;;;;12.82;8.27;;;;;;;-144.87;100.00;61487.56;5009477;28;20443;-69
2023/06/10 03:59:30;;;;;;;13.75;7.68;;;;;;;-144.87;100.00;61487.56;5012259;28;20534;-69
2023/06/10 04:01:56;;;;;;;13.88;7.28;;;;;;;-144.87;100.00;61487.56;4990463;28;20057;-69
2023/06/10 04:04:24;;;;;;;11.65;7.75;;;;;;;-144.87;100.00;61487.56;4971162;28;20077;-69
2023/06/10 04:06:51;;;;;;;22.38;7.55;;;;;;;-144.87;100.00;61487.56;4988182;28;20057;-69
2023/06/10 04:09:18;;;;;;;14.30;7.30;;;;;;;-144.87;100.00;61487.56;4988773;28;20130;-69
2023/06/10 04:11:44;;;;;;;13.18;8.07;;;;;;;-144.87;100.00;61487.56;4955320;28;20125;-69
2023/06/10 04:14:11;;;;;;;13.35;7.80;;;;;;;-144.87;100.00;61487.56;4974164;28;20435;-69
2023/06/10 04:16:39;;;;;;;17.60;8.23;;;;;;;-144.87;100.00;61487.56;4955304;28;20167;-69
2023/06/10 04:19:05;;;;;;;15.32;7.90;;;;;;;-144.87;100.00;61487.56;4970728;28;20045;-70
2023/06/10 04:21:32;;;;;;;11.70;7.45;;;;;;;-144.87;100.00;61487.56;4970767;28;20496;-70
2023/06/10 04:23:59;;;;;;;16.83;8.25;;;;;;;-144.87;100.00;61487.56;4954958;28;20114;-70
2023/06/10 04:26:25;;;;;;;14.70;8.20;;;;;;;-144.87;100.00;61487.56;4955401;28;20136;-68
2023/06/10 04:28:53;;;;;;;16.65;7.95;;;;;;;-144.87;100.00;61487.56;4972923;28;20030;-69
2023/06/10 04:31:19;;;;;;;16.65;7.40;;;;;;;-144.87;100.00;61487.56;4968982;28;20066;-69
2023/06/10 04:33:47;;;;;;;13.25;8.07;;;;;;;-144.87;100.00;61487.56;4954483;28;20039;-70
2023/06/10 04:36:14;;;;;;;14.43;7.38;;;;;;;-144.87;100.00;61487.56;4957740;28;20048;-70
2023/06/10 04:38:41;;;;;;;18.33;7.45;;;;;;;-144.87;100.00;61487.56;4953945;28;20109;-69
2023/06/10 04:41:08;;;;;;;11.40;7.35;;;;;;;-144.87;100.00;61487.56;4953662;28;20090;-70
2023/06/10 04:43:36;;;;;;;15.68;7.97;;;;;;;-144.87;100.00;61487.56;4960209;28;20034;-70
2023/06/10 04:46:02;;;;;;;12.20;7.57;;;;;;;-144.87;100.00;61487.56;4958093;28;20034;-70
2023/06/10 04:48:29;;;;;;;16.73;7.22;;;;;;;-144.87;100.00;61487.56;4953923;28;20419;-70
2023/06/10 04:50:56;;;;;;;15.25;7.53;;;;;;;-144.87;100.00;61487.56;4977412;28;20066;-69
2023/06/10 04:53:23;;;;;;;14.32;8.15;;;;;;;-144.87;100.00;61487.56;4981681;28;20046;-69
2023/06/10 04:55:51;;;;;;;16.92;7.57;;;;;;;-144.87;100.00;61487.56;4972504;28;20085;-70
2023/06/10 04:58:17;;;;;;;17.77;7.63;;;;;;;-144.87;100.00;61487.56;4968293;28;20099;-69
2023/06/10 05:00:43;;;;;;;14.75;8.02;;;;;;;-144.87;100.00;61487.56;4978077;28;20113;-69
2023/06/10 05:03:10;;;;;;;11.52;7.15;;;;;;;-144.87;100.00;61487.56;4991035;28;20125;-70
2023/06/10 05:05:36;;;;;;;13.43;7.68;;;;;;;-144.87;100.00;61487.56;5003608;28;20041;-70
2023/06/10 05:08:02;;;;;;;11.02;7.07;;;;;;;-144.87;100.00;61487.56;5010969;28;20403;-70
2023/06/10 05:10:31;;;;;;;17.63;7.38;;;;;;;-144.87;100.00;61487.56;5003149;28;20302;-70
2023/06/10 05:12:58;;;;;;;12.85;7.72;;;;;;;-144.87;100.00;61487.56;5002058;28;20057;-71
2023/06/10 05:15:26;;;;;;;12.15;7.07;;;;;;;-144.87;100.00;61487.56;4991931;28;20050;-70
2023/06/10 05:17:52;;;;;;;16.88;7.25;;;;;;;-144.87;100.00;61487.56;4994041;28;20093;-70
2023/06/10 05:20:19;;;;;;;12.15;7.60;;;;;;;-144.87;100.00;61487.56;4999812;28;20572;-71
2023/06/10 05:22:46;;;;;;;13.88;7.10;;;;;;;-144.87;100.00;61487.56;4993331;28;20129;-71
2023/06/10 05:25:12;;;;;;;18.77;7.35;;;;;;;-144.87;100.00;61487.56;5019280;28;20111;-70
2023/06/10 05:27:41;;;;;;;12.38;7.25;;;;;;;-144.87;100.00;61487.56;5014378;28;20041;-69
2023/06/10 05:30:09;;;;;;;13.27;7.70;;;;;;;-144.87;100.00;61487.56;4997279;28;20049;-70
2023/06/10 05:32:36;;;;;;;14.85;7.30;;;;;;;-144.87;100.00;61487.56;5006022;28;20040;-69
2023/06/10 05:35:03;;;;;;;16.55;7.85;;;;;;;-144.87;100.00;61487.56;5004350;28;20069;-70
2023/06/10 05:37:30;;;;;;;14.02;7.28;;;;;;;-144.87;100.00;61487.56;5004793;28;20048;-70
2023/06/10 05:39:56;;;;;;;17.00;7.40;;;;;;;-144.87;100.00;61487.56;5008666;28;20048;-69
2023/06/10 05:42:22;;;;;;;12.43;7.65;;;;;;;-144.87;100.00;61487.56;5007702;28;20042;-70
2023/06/10 05:44:49;;;;;;;13.30;7.43;;;;;;;-144.87;100.00;61487.56;5005634;28;20045;-70
2023/06/10 05:47:15;;;;;;;15.57;6.80;;;;;;;-144.87;100.00;61487.56;5009704;28;20046;-71
2023/06/10 05:49:41;;;;;;;17.05;7.93;;;;;;;-144.87;100.00;61487.56;5008966;28;20061;-70
2023/06/10 05:52:08;;;;;;;14.90;7.40;;;;;;;-144.87;100.00;61487.56;5000166;28;20034;-71
2023/06/10 05:54:34;;;;;;;14.50;7.50;;;;;;;-144.87;100.00;61487.56;5007200;28;20104;-70
2023/06/10 05:57:00;;;;;;;12.40;7.32;;;;;;;-144.87;100.00;61487.56;4999279;28;20038;-68
2023/06/10 05:59:27;;;;;;;15.55;7.57;;;;;;;-144.87;100.00;61487.56;5018136;28;20497;-70
2023/06/10 06:01:53;;;;;;;17.48;7.15;;;;;;;-144.87;100.00;61487.56;4996510;28;20034;-70
2023/06/10 06:04:19;;;;;;;13.20;7.60;;;;;;;-144.87;100.00;61487.56;5004086;28;20058;-71
2023/06/10 06:06:45;;;;;;;13.15;8.20;;;;;;;-144.87;100.00;61487.56;5006349;28;20550;-70
2023/06/10 06:09:12;;;;;;;12.63;7.40;;;;;;;-144.87;100.00;61487.56;5005711;28;20419;-71
2023/06/10 06:11:38;;;;;;;14.63;7.53;;;;;;;-144.87;100.00;61487.56;5004545;28;20030;-70
2023/06/10 06:14:05;;;;;;;12.57;7.88;;;;;;;-144.87;100.00;61487.56;5007510;28;20387;-69
2023/06/10 06:16:31;;;;;;;20.67;7.30;;;;;;;-144.87;100.00;61487.56;5002674;28;20034;-70
2023/06/10 06:18:58;;;;;;;11.15;7.20;;;;;;;-144.87;100.00;61487.56;5007858;28;20057;-69
2023/06/10 06:21:24;;;;;;;12.07;7.07;;;;;;;-144.87;100.00;61487.56;5000339;28;20087;-70
2023/06/10 06:23:50;;;;;;;11.85;7.47;;;;;;;-144.87;100.00;61487.56;5002482;28;20038;-70
2023/06/10 06:26:18;;;;;;;13.82;7.35;;;;;;;-144.87;100.00;61487.56;4988783;28;20038;-70
2023/06/10 06:28:44;;;;;;;14.07;7.55;;;;;;;-144.87;100.00;61487.56;4999448;28;20171;-70
2023/06/10 06:31:10;;;;;;;10.35;7.25;;;;;;;-144.87;100.00;61487.56;5004376;28;20484;-70
2023/06/10 06:33:38;;;;;;;15.65;7.47;;;;;;;-144.87;100.00;61487.56;5013378;28;20042;-74
2023/06/10 06:36:06;;;;;;;16.73;6.90;;;;;;;-144.87;100.00;61487.56;5004935;28;20050;-70
2023/06/10 06:38:32;;;;;;;19.05;7.57;;;;;;;-144.87;100.00;61487.56;5001936;28;20120;-70
2023/06/10 06:41:04;;;;;;;17.83;6.72;;;;;;;-144.87;100.00;61487.56;5015448;28;20033;-70
2023/06/10 06:43:30;;;;;;;14.45;6.95;;;;;;;-144.87;100.00;61487.56;5023526;28;20057;-68
2023/06/10 06:46:15;;;;;;;12.73;7.45;;;;;;;-144.87;100.00;61487.56;5022764;28;20237;-71
2023/06/10 06:48:42;;;;;;;11.65;6.68;;;;;;;-144.87;100.00;61487.56;5021280;28;20115;-69
2023/06/10 06:51:08;;;;;;;14.95;7.43;;;;;;;-144.87;100.00;61487.56;5017170;28;20085;-72
2023/06/10 06:53:35;;;;;;;14.45;7.20;;;;;;;-144.87;100.00;61487.56;5000794;28;20121;-70
2023/06/10 06:56:03;;;;;;;10.75;6.78;;;;;;;-144.87;100.00;61487.56;4991449;28;20487;-70
2023/06/10 06:58:29;;;;;;;22.17;7.00;;;;;;;-144.87;100.00;61487.56;5007430;28;20499;-71
2023/06/10 07:00:55;;;;;;;15.23;6.75;;;;;;;-144.87;100.00;61487.56;4992395;28;20030;-70
2023/06/10 07:03:23;;;;;;;14.18;6.72;;;;;;;-144.87;100.00;61487.56;4990522;28;20050;-71
2023/06/10 07:05:49;;;;;;;13.93;6.65;;;;;;;-144.87;100.00;61487.56;4974643;28;20061;-70
2023/06/10 07:08:15;;;;;;;12.57;7.15;;;;;;;-144.87;100.00;61487.56;5006496;28;20088;-71
2023/06/10 07:10:42;;;;;;;12.43;6.53;;;;;;;-144.87;100.00;61487.56;5010899;28;20061;-70
2023/06/10 07:13:09;;;;;;;14.18;6.88;;;;;;;-144.87;100.00;61487.56;5010751;28;20048;-70
2023/06/10 07:15:54;;;;;;;15.52;6.80;;;;;;;-144.87;100.00;61487.56;5012353;28;20069;-70
2023/06/10 07:18:20;;;;;;;13.38;6.80;;;;;;;-144.87;100.00;61487.56;5011798;28;20084;-70
2023/06/10 07:20:47;;;;;;;13.00;6.97;;;;;;;-144.87;100.00;61487.56;5008283;28;20034;-70
2023/06/10 07:23:14;;;;;;;12.00;6.78;;;;;;;-144.87;100.00;61487.56;4992386;28;20034;-72
2023/06/10 07:25:41;;;;;;;12.38;6.85;;;;;;;-144.87;100.00;61487.56;4975182;28;20065;-71
2023/06/10 07:28:08;;;;;;;13.45;7.20;;;;;;;-144.87;100.00;61487.56;4992169;28;20034;-71
2023/06/10 07:30:34;;;;;;;10.55;6.60;;;;;;;-144.87;100.00;61487.56;4992170;28;20105;-72
2023/06/10 07:33:02;;;;;;;17.20;6.88;;;;;;;-144.87;100.00;61487.56;4991893;28;20108;-71
2023/06/10 07:35:28;;;;;;;11.98;7.07;;;;;;;-144.87;100.00;61487.56;4996864;28;20054;-71
2023/06/10 07:37:54;;;;;;;11.27;6.93;;;;;;;-144.87;100.00;61487.56;5015365;28;20026;-69
2023/06/10 07:40:20;;;;;;;16.92;6.88;;;;;;;-144.87;100.00;61487.56;5023604;28;20045;-71
2023/06/10 07:42:46;;;;;;;31.83;7.68;;;;;;;-144.87;100.00;61487.56;5023731;28;20034;-69
2023/06/10 07:45:13;;;;;;;11.75;6.13;;;;;;;-144.87;100.00;61487.56;5019813;28;20042;-73
2023/06/10 07:47:39;;;;;;;18.92;6.40;;;;;;;-144.87;100.00;61487.56;5014303;28;20133;-71
2023/06/10 07:50:06;;;;;;;13.20;6.57;;;;;;;-144.87;100.00;61487.56;5010166;28;20041;-72
2023/06/10 07:52:32;;;;;;;14.73;6.78;;;;;;;-144.87;100.00;61487.56;4993840;28;20041;-72
2023/06/10 07:54:59;;;;;;;14.27;6.55;;;;;;;-144.87;100.00;61487.56;5009672;28;20050;-71
2023/06/10 07:57:25;;;;;;;14.65;7.05;;;;;;;-144.87;100.00;61487.56;5011544;28;20049;-71
2023/06/10 07:59:51;;;;;;;11.77;6.55;;;;;;;-144.87;100.00;61487.56;5009604;28;20046;-71
2023/06/10 08:02:18;;;;;;;17.02;6.40;;;;;;;-144.87;100.00;61487.56;5008800;28;20038;-69
2023/06/10 08:04:44;;;;;;;16.73;6.57;;;;;;;-144.87;100.00;61487.56;4991225;28;20137;-70
2023/06/10 08:07:10;;;;;;;9.70;6.72;;;;;;;-144.87;100.00;61487.56;4986788;28;20034;-70
2023/06/10 08:09:39;;;;;;;16.05;6.57;;;;;;;-144.87;100.00;61487.56;4971881;28;20074;-70
2023/06/10 08:12:06;;;;;;;11.63;6.93;;;;;;;-144.87;100.00;61487.56;4954474;28;20050;-71
2023/06/10 08:14:36;;;;;;;14.60;6.38;;;;;;;-144.87;100.00;61487.56;4955109;28;20061;-71
2023/06/10 08:17:06;;;;;;;22.60;6.13;;;;;;;-144.87;100.00;61487.56;4970860;28;20039;-70
2023/06/10 08:19:32;;;;;;;11.97;6.53;;;;;;;-144.87;100.00;61487.56;4973564;28;20068;-70
2023/06/10 08:21:59;;;;;;;15.93;6.32;;;;;;;-144.87;100.00;61487.56;4974011;28;20349;-71
2023/06/10 08:24:25;;;;;;;14.90;5.93;;;;;;;-144.87;100.00;61487.56;4974215;28;20130;-70
2023/06/10 08:26:51;;;;;;;18.67;6.57;;;;;;;-144.87;100.00;61487.56;4974834;28;20136;-70
2023/06/10 08:29:17;;;;;;;12.85;6.63;;;;;;;-144.87;100.00;61487.56;4996292;28;20042;-73
2023/06/10 08:31:45;;;;;;;11.73;6.68;;;;;;;-144.87;100.00;61487.56;4999175;28;20034;-70
2023/06/10 08:34:11;;;;;;;14.80;6.10;;;;;;;-144.87;100.00;61487.56;4984580;28;20026;-71
2023/06/10 08:36:38;;;;;;;15.13;6.20;;;;;;;-144.87;100.00;61487.56;5008044;28;20073;-70
2023/06/10 08:39:04;;;;;;;11.73;6.55;;;;;;;-144.87;100.00;61487.56;4988686;28;20034;-69
2023/06/10 08:41:37;;;;;;;12.52;6.22;;;;;;;-144.87;100.00;61487.56;4995394;28;20496;-70
2023/06/10 08:44:18;;;;;;;9.70;6.03;;;;;;;-144.87;100.00;61487.56;5011331;28;20043;-70
2023/06/10 08:46:46;;;;;;;12.35;6.03;;;;;;;-144.87;100.00;61487.56;4993022;28;20068;-71
2023/06/10 08:49:18;;;;;;;10.93;6.15;;;;;;;-144.87;100.00;61487.56;5014317;28;20069;-72
2023/06/10 08:51:44;;;;;;;14.90;6.25;;;;;;;-144.87;100.00;61487.56;4998429;28;20041;-70
2023/06/10 08:54:21;;;;;;;10.80;6.30;;;;;;;-144.87;100.00;61487.56;4999020;28;20125;-70
2023/06/10 08:56:49;;;;;;;12.55;6.18;;;;;;;-144.87;100.00;61487.56;4998965;28;20030;-71
2023/06/10 08:59:16;;;;;;;20.02;6.38;;;;;;;-144.87;100.00;61487.56;4995377;28;20030;-70
2023/06/10 09:01:44;;;;;;;10.02;6.18;;;;;;;-144.87;100.00;61487.56;4962741;28;20490;-71
2023/06/10 09:04:11;;;;;;;14.27;6.72;;;;;;;-144.87;100.00;61487.56;4992865;28;20482;-70
2023/06/10 09:06:38;;;;;;;12.02;6.82;;;;;;;-144.87;100.00;61487.56;4995009;28;20034;-71
2023/06/10 09:09:06;;;;;;;9.48;6.13;;;;;;;-144.87;100.00;61487.56;4976860;28;20418;-70
2023/06/10 09:11:34;;;;;;;13.25;6.25;;;;;;;-144.87;100.00;61487.56;4977040;28;20047;-70
2023/06/10 09:14:00;;;;;;;10.30;6.30;;;;;;;-144.87;100.00;61487.56;4995770;28;20053;-70
2023/06/10 09:16:26;;;;;;;14.38;6.85;;;;;;;-144.87;100.00;61487.56;4964499;28;20046;-69
2023/06/10 09:18:55;;;;;;;11.15;5.57;;;;;;;-144.87;100.00;61487.56;4979377;28;20057;-69
2023/06/10 09:21:24;;;;;;;12.55;6.25;;;;;;;-144.87;100.00;61487.56;4996513;28;20054;-71
2023/06/10 09:23:51;;;;;;;13.95;6.15;;;;;;;-144.87;100.00;61487.56;5003042;28;20034;-73
2023/06/10 09:26:18;;;;;;;15.13;6.53;;;;;;;-144.87;100.00;61487.56;5006343;28;20109;-69
2023/06/10 09:28:51;;;;;;;11.38;5.95;;;;;;;-144.87;100.00;61487.56;4994322;28;20045;-69
2023/06/10 09:31:21;;;;;;;10.10;6.18;;;;;;;-144.87;100.00;61487.56;4982391;28;20072;-71
2023/06/10 09:33:48;;;;;;;14.20;6.03;;;;;;;-144.87;100.00;61487.56;4989573;28;20042;-73
2023/06/10 09:36:22;;;;;;;9.55;5.70;;;;;;;-144.87;100.00;61487.56;4973576;28;20046;-71
2023/06/10 09:38:53;;;;;;;9.43;5.80;;;;;;;-144.87;100.00;61487.56;5003857;28;20092;-70
2023/06/10 09:41:19;;;;;;;10.30;5.78;;;;;;;-144.87;100.00;61487.56;4982704;28;20045;-73
2023/06/10 09:43:46;;;;;;;12.48;5.72;;;;;;;-144.87;100.00;61487.56;4975733;28;20117;-71
2023/06/10 09:46:19;;;;;;;15.30;6.00;;;;;;;-144.87;100.00;61487.56;4994343;28;20050;-72
2023/06/10 09:48:47;;;;;;;12.05;5.65;;;;;;;-144.87;100.00;61487.56;4994273;28;20061;-71
2023/06/10 09:51:16;;;;;;;13.68;5.80;;;;;;;-144.87;100.00;61487.56;4976127;28;20372;-72
2023/06/10 09:53:43;;;;;;;9.17;6.30;;;;;;;-144.87;100.00;61487.56;4976358;28;20504;-71
2023/06/10 09:56:09;;;;;;;12.18;5.72;;;;;;;-144.87;100.00;61487.56;4974678;28;20043;-71
2023/06/10 09:58:42;;;;;;;16.20;5.85;;;;;;;-144.87;100.00;61487.56;4961004;28;20053;-71
2023/06/10 10:01:14;;;;;;;12.52;5.57;;;;;;;-144.87;100.00;61487.56;4977383;28;20156;-71
2023/06/10 10:03:49;;;;;;;8.60;5.45;;;;;;;-144.87;100.00;61487.56;4971676;28;20058;-72
2023/06/10 10:06:17;;;;;;;12.85;5.50;;;;;;;-144.87;100.00;61487.56;5000806;28;20026;-71
2023/06/10 10:08:44;;;;;;;8.35;5.85;;;;;;;-144.87;100.00;61487.56;5005659;28;20041;-71
2023/06/10 10:11:11;;;;;;;12.68;5.78;;;;;;;-144.87;100.00;61487.56;5010271;28;20049;-71
2023/06/10 10:13:38;;;;;;;14.45;6.00;;;;;;;-144.87;100.00;61487.56;5009311;28;20040;-70
2023/06/10 10:16:11;;;;;;;10.48;5.43;;;;;;;-144.87;100.00;61487.56;4995353;28;20065;-69
2023/06/10 10:18:40;;;;;;;11.63;5.88;;;;;;;-144.87;100.00;61487.56;4996875;28;20074;-70
2023/06/10 10:21:14;;;;;;;15.47;5.63;;;;;;;-144.87;100.00;61487.56;5021536;28;20038;-69
2023/06/10 10:24:00;;;;;;;9.13;5.60;;;;;;;-144.87;100.00;61487.56;5015465;28;20057;-72
2023/06/10 10:26:27;;;;;;;18.67;6.45;;;;;;;-144.87;100.00;61487.56;5035965;28;20064;-70
2023/06/10 10:29:14;;;;;;;12.52;5.85;;;;;;;-144.87;100.00;61487.56;5025821;28;20046;-71
2023/06/10 10:31:44;;;;;;;12.48;5.80;;;;;;;-144.87;100.00;61487.56;5012137;28;20061;-71
2023/06/10 10:34:21;;;;;;;14.57;5.73;;;;;;;-144.87;100.00;61487.56;5016463;28;20091;-69
2023/06/10 10:36:48;;;;;;;9.95;5.40;;;;;;;-144.87;100.00;61487.56;5012095;28;20499;-70
2023/06/10 10:39:15;;;;;;;11.68;5.78;;;;;;;-144.87;100.00;61487.56;5026518;28;20534;-70
2023/06/10 10:41:42;;;;;;;10.63;5.75;;;;;;;-144.87;100.00;61487.56;5028452;28;20060;-69
2023/06/10 10:44:09;;;;;;;32.67;6.25;;;;;;;-144.87;100.00;61487.56;5016502;28;20046;-70
2023/06/10 10:46:49;;;;;;;8.15;5.20;;;;;;;-144.87;100.00;61487.56;4994340;28;20099;-71
2023/06/10 10:49:16;;;;;;;;;;;;;;;-144.87;100.00;61487.56;5019501;28;20033;-72
2023/06/10 10:51:58;;;;;;;11.55;5.00;;;;;;;-144.87;100.00;61487.56;5025666;28;20414;-70
2023/06/10 10:54:31;;;;;;;8.95;5.30;;;;;;;-144.87;100.00;61487.56;5025488;28;20038;-71
2023/06/10 10:57:13;;;;;;;10.70;5.15;;;;;;;-144.87;100.00;61487.56;5011859;28;20049;-70
2023/06/10 10:59:49;;;;;;;8.65;5.30;;;;;;;-144.87;100.00;61487.56;5021297;28;20037;-70
2023/06/10 11:02:31;;;;;;;10.23;5.60;;;;;;;-144.87;100.00;61487.56;5018536;28;20487;-70
2023/06/10 11:04:58;;;;;;;11.73;5.43;;;;;;;-144.87;100.00;61487.56;5004223;28;20046;-71
2023/06/10 11:07:25;;;;;;;12.32;5.22;;;;;;;-144.87;100.00;61487.56;4978888;28;20507;-71